createdAt,value
2019-03-18T00:08:24.017Z,5.18
2019-03-18T00:10:59.681Z,5.09
2019-03-18T00:13:42.519Z,5.07
2019-03-18T00:16:19.902Z,5.10
2019-03-18T00:19:14.587Z,5.12
2019-03-18T00:25:28.442Z,5.04
2019-03-18T00:28:04.189Z,5.16
2019-03-18T00:30:57.146Z,5.11
2019-03-18T00:34:23.225Z,5.09
2019-03-18T00:39:44.769Z,5.04
2019-03-18T00:42:37.820Z,5.09
2019-03-18T00:45:15.600Z,5.08
2019-03-18T00:55:30.485Z,5.13
2019-03-18T00:58:39.340Z,5.20
2019-03-18T01:04:48.947Z,5.21
2019-03-18T01:07:25.807Z,5.23
2019-03-18T01:10:14.759Z,5.19
2019-03-18T01:13:13.051Z,5.19
2019-03-18T01:15:48.111Z,5.24
2019-03-18T01:18:35.701Z,5.19
2019-03-18T01:21:10.588Z,5.13
2019-03-18T01:24:02.343Z,5.05
2019-03-18T01:26:54.084Z,4.97
2019-03-18T01:29:53.467Z,4.92
2019-03-18T01:32:55.123Z,4.97
2019-03-18T01:35:43.075Z,4.88
2019-03-18T01:38:33.777Z,4.89
2019-03-18T01:41:47.499Z,4.91
2019-03-18T01:44:37.505Z,4.99
2019-03-18T01:47:24.563Z,4.99
2019-03-18T01:50:23.114Z,5.01
2019-03-18T01:53:13.279Z,5.02
2019-03-18T01:55:49.306Z,5.01
2019-03-18T02:02:30.316Z,4.80
2019-03-18T02:05:07.483Z,4.83
2019-03-18T02:08:06.948Z,4.87
2019-03-18T02:10:52.801Z,4.95
2019-03-18T02:13:27.816Z,5.01
2019-03-18T02:16:19.703Z,5.02
2019-03-18T02:19:07.860Z,5.02
2019-03-18T02:24:53.790Z,4.83
2019-03-18T02:27:29.873Z,4.81
2019-03-18T02:30:06.257Z,4.79
2019-03-18T02:32:41.206Z,4.72
2019-03-18T02:38:40.323Z,4.71
2019-03-18T02:41:29.420Z,4.72
2019-03-18T02:44:05.269Z,4.72
2019-03-18T02:46:55.363Z,4.67
2019-03-18T02:49:52.740Z,4.70
2019-03-18T02:52:27.637Z,4.72
2019-03-18T02:55:40.829Z,4.70
2019-03-18T02:58:29.427Z,4.74
2019-03-18T03:01:19.972Z,4.84
2019-03-18T03:03:57.572Z,4.98
2019-03-18T03:06:33.327Z,4.93
2019-03-18T03:09:21.730Z,4.85
2019-03-18T03:12:12.185Z,4.87
2019-03-18T03:14:53.704Z,4.83
2019-03-18T03:17:44.652Z,4.82
2019-03-18T03:20:23.235Z,4.82
2019-03-18T03:23:04.991Z,4.85
2019-03-18T03:25:40.815Z,4.84
2019-03-18T03:28:18.096Z,4.87
2019-03-18T03:30:59.240Z,4.84
2019-03-18T03:33:34.284Z,4.84
2019-03-18T03:36:09.151Z,4.79
2019-03-18T03:38:48.438Z,4.78
2019-03-18T03:41:47.909Z,4.82
2019-03-18T03:44:28.121Z,4.86
2019-03-18T03:47:18.470Z,4.96
2019-03-18T03:49:53.390Z,4.95
2019-03-18T03:52:43.371Z,4.88
2019-03-18T03:55:31.853Z,4.89
2019-03-18T03:58:07.793Z,4.88
2019-03-18T04:00:50.684Z,4.81
2019-03-18T04:03:37.614Z,4.76
2019-03-18T04:06:46.369Z,4.65
2019-03-18T04:09:29.229Z,4.64
2019-03-18T04:12:05.690Z,4.61
2019-03-18T04:18:07.644Z,4.60
2019-03-18T04:21:07.297Z,4.68
2019-03-18T04:23:51.159Z,4.82
2019-03-18T04:26:29.223Z,4.84
2019-03-18T04:29:23.904Z,4.94
2019-03-18T04:32:03.149Z,4.82
2019-03-18T04:34:57.849Z,4.74
2019-03-18T04:37:32.918Z,4.62
2019-03-18T04:40:24.761Z,4.61
2019-03-18T04:43:00.513Z,4.64
2019-03-18T04:45:35.672Z,4.67
2019-03-18T04:48:29.791Z,4.76
2019-03-18T04:51:04.967Z,4.82
2019-03-18T04:53:52.614Z,4.80
2019-03-18T04:57:06.845Z,4.87
2019-03-18T05:00:03.229Z,4.87
2019-03-18T05:02:51.948Z,4.78
2019-03-18T05:05:40.699Z,4.65
2019-03-18T05:08:31.760Z,4.58
2019-03-18T05:11:06.978Z,4.52
2019-03-18T05:13:41.935Z,4.60
2019-03-18T05:16:17.732Z,4.58
2019-03-18T05:18:54.876Z,4.52
2019-03-18T05:21:55.684Z,4.43
2019-03-18T05:24:44.065Z,4.47
2019-03-18T05:43:22.159Z,4.50
2019-03-18T05:46:02.901Z,4.52
2019-03-18T05:48:39.473Z,4.54
2019-03-18T05:51:23.999Z,4.47
2019-03-18T05:54:05.170Z,4.42
2019-03-18T05:56:40.954Z,4.42
2019-03-18T06:02:30.483Z,4.43
2019-03-18T06:05:09.275Z,4.41
2019-03-18T06:07:57.369Z,4.45
2019-03-18T06:10:33.185Z,4.60
2019-03-18T06:13:12.667Z,4.61
2019-03-18T06:16:34.572Z,4.62
2019-03-18T06:19:15.477Z,4.64
2019-03-18T06:22:05.599Z,4.70
2019-03-18T06:24:55.452Z,4.63
2019-03-18T06:27:31.253Z,4.66
2019-03-18T06:30:13.723Z,4.64
2019-03-18T06:32:57.492Z,4.55
2019-03-18T06:35:32.490Z,4.63
2019-03-18T06:38:08.327Z,4.57
2019-03-18T06:43:43.242Z,4.46
2019-03-18T06:46:23.734Z,4.47
2019-03-18T06:49:11.718Z,4.56
2019-03-18T06:51:53.485Z,4.59
2019-03-18T06:54:28.376Z,4.65
2019-03-18T07:00:07.018Z,4.90
2019-03-18T07:02:45.501Z,4.99
2019-03-18T07:05:21.218Z,4.85
2019-03-18T07:08:02.772Z,4.70
2019-03-18T07:10:37.658Z,4.60
2019-03-18T07:13:14.476Z,4.55
2019-03-18T07:15:55.235Z,4.60
2019-03-18T07:18:40.952Z,4.54
2019-03-18T07:21:17.292Z,4.53
2019-03-18T07:24:15.186Z,4.51
2019-03-18T07:27:12.236Z,4.58
2019-03-18T07:29:47.107Z,4.68
2019-03-18T07:32:43.314Z,4.75
2019-03-18T07:35:18.208Z,4.82
2019-03-18T07:38:08.013Z,4.83
2019-03-18T07:40:57.042Z,4.79
2019-03-18T07:43:32.765Z,4.93
2019-03-18T07:46:21.064Z,5.12
2019-03-18T07:49:12.350Z,5.13
2019-03-18T07:51:48.127Z,5.28
2019-03-18T07:54:36.699Z,5.34
2019-03-18T07:57:35.652Z,5.46
2019-03-18T08:00:18.571Z,5.86
2019-03-18T08:03:11.439Z,6.15
2019-03-18T08:05:47.171Z,6.02
2019-03-18T08:08:22.165Z,5.72
2019-03-18T08:11:00.690Z,5.37
2019-03-18T08:13:42.676Z,5.25
2019-03-18T08:19:25.896Z,5.32
2019-03-18T08:22:01.687Z,5.58
2019-03-18T08:24:36.575Z,5.78
2019-03-18T08:27:11.464Z,5.82
2019-03-18T08:29:47.302Z,6.02
2019-03-18T08:32:22.662Z,6.00
2019-03-18T08:34:57.570Z,5.99
2019-03-18T08:37:32.504Z,6.10
2019-03-18T08:40:08.023Z,6.11
2019-03-18T08:42:43.084Z,6.43
2019-03-18T08:45:18.011Z,6.55
2019-03-18T08:47:53.018Z,6.63
2019-03-18T08:50:27.872Z,6.45
2019-03-18T08:53:02.743Z,6.33
2019-03-18T08:55:37.672Z,6.40
2019-03-18T08:58:12.613Z,6.60
2019-03-18T09:00:47.542Z,6.80
2019-03-18T09:03:22.504Z,6.97
2019-03-18T09:05:57.354Z,7.14
2019-03-18T09:08:32.367Z,7.12
2019-03-18T09:11:07.259Z,7.02
2019-03-18T09:13:42.232Z,7.10
2019-03-18T09:16:17.114Z,7.23
2019-03-18T09:18:52.054Z,7.41
2019-03-18T09:21:27.087Z,7.42
2019-03-18T09:24:02.386Z,7.54
2019-03-18T09:26:37.297Z,7.68
2019-03-18T09:29:12.266Z,7.99
2019-03-18T09:31:49.938Z,8.33
2019-03-18T09:34:24.865Z,8.23
2019-03-18T09:36:59.821Z,8.34
2019-03-18T09:39:34.864Z,8.27
2019-03-18T09:42:09.781Z,8.36
2019-03-18T09:44:44.936Z,8.35
2019-03-18T09:47:19.928Z,8.56
2019-03-18T09:49:54.760Z,8.71
2019-03-18T09:52:29.837Z,8.83
2019-03-18T09:55:04.693Z,8.94
2019-03-18T09:57:39.622Z,9.37
2019-03-18T10:00:14.542Z,9.19
2019-03-18T10:02:49.582Z,8.83
2019-03-18T10:05:24.636Z,8.54
2019-03-18T10:07:59.593Z,8.21
2019-03-18T10:10:34.636Z,8.69
2019-03-18T10:13:09.644Z,9.10
2019-03-18T10:15:45.242Z,8.95
2019-03-18T10:18:20.260Z,8.92
2019-03-18T10:20:55.100Z,9.33
2019-03-18T10:23:30.092Z,9.53
2019-03-18T10:26:04.915Z,9.66
2019-03-18T10:28:40.824Z,8.33
2019-03-18T10:31:15.595Z,6.84
2019-03-18T10:33:50.418Z,6.08
2019-03-18T10:36:25.219Z,5.89
2019-03-18T10:39:01.132Z,6.01
2019-03-18T10:41:37.379Z,6.34
2019-03-18T10:44:12.250Z,6.72
2019-03-18T10:46:47.089Z,6.99
2019-03-18T10:49:22.060Z,7.42
2019-03-18T10:51:56.946Z,7.61
2019-03-18T10:54:32.010Z,7.80
2019-03-18T10:57:06.938Z,8.16
2019-03-18T10:59:42.848Z,8.40
2019-03-18T11:02:18.530Z,8.78
2019-03-18T11:04:53.521Z,9.33
2019-03-18T11:07:28.456Z,9.68
2019-03-18T11:10:03.500Z,9.96
2019-03-18T11:12:38.382Z,10.34
2019-03-18T11:15:14.236Z,10.63
2019-03-18T11:17:49.170Z,9.77
2019-03-18T11:20:25.617Z,9.51
2019-03-18T11:23:00.527Z,9.05
2019-03-18T11:25:35.407Z,8.67
2019-03-18T11:28:10.317Z,8.40
2019-03-18T11:30:46.224Z,8.12
2019-03-18T11:33:21.232Z,8.51
2019-03-18T11:35:56.129Z,8.62
2019-03-18T11:38:32.092Z,9.04
2019-03-18T11:41:08.086Z,9.10
2019-03-18T11:43:42.995Z,9.35
2019-03-18T11:46:17.937Z,10.15
2019-03-18T11:48:52.848Z,10.77
2019-03-18T11:51:27.779Z,11.39
2019-03-18T11:54:02.771Z,11.09
2019-03-18T11:56:37.715Z,10.42
2019-03-18T11:59:12.692Z,10.41
2019-03-18T12:01:47.596Z,10.32
2019-03-18T12:04:22.543Z,10.72
2019-03-18T12:06:57.532Z,11.45
2019-03-18T12:09:32.571Z,11.98
2019-03-18T12:12:07.631Z,12.53
2019-03-18T12:14:42.563Z,12.56
2019-03-18T12:17:18.410Z,12.42
2019-03-18T12:19:53.289Z,11.48
2019-03-18T12:22:28.187Z,11.72
2019-03-18T12:25:03.219Z,11.24
2019-03-18T12:27:38.288Z,10.93
2019-03-18T12:30:17.032Z,10.17
2019-03-18T12:32:52.252Z,7.78
2019-03-18T12:35:27.364Z,7.18
2019-03-18T12:38:02.226Z,7.05
2019-03-18T12:40:37.553Z,6.99
2019-03-18T12:43:12.433Z,7.03
2019-03-18T12:45:47.473Z,7.30
2019-03-18T12:48:22.578Z,7.99
2019-03-18T12:50:58.633Z,9.08
2019-03-18T12:53:33.657Z,9.66
2019-03-18T12:56:08.927Z,10.28
2019-03-18T12:58:44.229Z,10.75
2019-03-18T13:01:19.308Z,11.31
2019-03-18T13:03:54.298Z,11.43
2019-03-18T13:06:29.194Z,12.12
2019-03-18T13:09:07.603Z,11.87
2019-03-18T13:11:42.525Z,11.74
2019-03-18T13:14:17.424Z,12.13
2019-03-18T13:16:52.370Z,12.48
2019-03-18T13:19:27.219Z,11.82
2019-03-18T13:22:02.456Z,12.31
2019-03-18T13:24:37.359Z,12.57
2019-03-18T13:27:12.279Z,12.90
2019-03-18T13:29:47.170Z,12.84
2019-03-18T13:32:23.170Z,11.57
2019-03-18T13:34:58.067Z,10.92
2019-03-18T13:37:33.911Z,11.42
2019-03-18T13:40:10.002Z,12.44
2019-03-18T13:42:45.088Z,10.27
2019-03-18T13:45:20.115Z,8.69
2019-03-18T13:47:56.095Z,8.22
2019-03-18T13:50:31.003Z,8.37
2019-03-18T13:53:06.045Z,9.15
2019-03-18T13:55:40.950Z,10.55
2019-03-18T13:58:16.836Z,10.99
2019-03-18T14:00:51.786Z,12.30
2019-03-18T14:03:26.655Z,11.74
2019-03-18T14:06:01.547Z,12.16
2019-03-18T14:08:36.669Z,12.76
2019-03-18T14:11:11.696Z,11.91
2019-03-18T14:13:46.653Z,12.54
2019-03-18T14:16:21.579Z,12.92
2019-03-18T14:18:56.415Z,13.02
2019-03-18T14:21:33.512Z,13.57
2019-03-18T14:24:08.230Z,13.65
2019-03-18T14:26:44.186Z,12.47
2019-03-18T14:29:19.071Z,11.96
2019-03-18T14:31:54.607Z,13.03
2019-03-18T14:34:29.528Z,13.13
2019-03-18T14:37:04.437Z,12.26
2019-03-18T14:39:39.321Z,12.62
2019-03-18T14:42:14.268Z,13.95
2019-03-18T14:44:48.076Z,15.45
2019-03-18T14:47:23.220Z,14.96
2019-03-18T14:49:59.967Z,15.19
2019-03-18T14:52:34.954Z,16.36
2019-03-18T14:55:10.429Z,15.75
2019-03-18T14:57:45.505Z,15.48
2019-03-18T15:00:21.886Z,14.64
2019-03-18T15:02:57.131Z,13.73
2019-03-18T15:05:32.873Z,14.45
2019-03-18T15:08:07.794Z,14.56
2019-03-18T15:10:42.732Z,13.83
2019-03-18T15:13:30.021Z,14.11
2019-03-18T15:15:55.161Z,13.69
2019-03-18T15:18:30.068Z,12.61
2019-03-18T15:21:04.857Z,12.79
2019-03-18T15:23:39.851Z,12.96
2019-03-18T15:26:14.665Z,12.14
2019-03-18T15:28:50.529Z,11.47
2019-03-18T15:31:25.461Z,10.82
2019-03-18T15:34:00.466Z,10.52
2019-03-18T15:36:35.410Z,10.65
2019-03-18T15:39:10.326Z,10.94
2019-03-18T15:41:45.191Z,10.70
2019-03-18T15:44:20.098Z,10.39
2019-03-18T15:46:54.948Z,10.14
2019-03-18T15:49:29.871Z,10.03
2019-03-18T15:52:10.939Z,9.71
2019-03-18T15:54:53.158Z,10.00
2019-03-18T15:57:29.220Z,10.34
2019-03-18T15:59:55.694Z,11.33
2019-03-18T16:02:30.622Z,12.93
2019-03-18T16:05:05.956Z,13.41
2019-03-18T16:07:41.399Z,13.81
2019-03-18T16:10:16.575Z,13.45
2019-03-18T16:12:51.899Z,12.55
2019-03-18T16:15:26.893Z,11.12
2019-03-18T16:18:03.453Z,11.06
2019-03-18T16:20:38.373Z,10.67
2019-03-18T16:23:13.434Z,9.79
2019-03-18T16:25:48.466Z,9.28
2019-03-18T16:28:23.377Z,8.98
2019-03-18T16:30:58.261Z,8.85
2019-03-18T16:33:33.310Z,8.86
2019-03-18T16:36:08.219Z,8.70
2019-03-18T16:38:43.781Z,8.68
2019-03-18T16:41:18.895Z,8.67
2019-03-18T16:43:54.233Z,8.49
2019-03-18T16:46:29.299Z,8.43
2019-03-18T16:49:05.371Z,8.61
2019-03-18T16:51:40.366Z,7.56
2019-03-18T16:54:15.342Z,6.67
2019-03-18T16:56:50.637Z,6.23
2019-03-18T16:59:26.679Z,6.18
2019-03-18T17:02:03.105Z,6.17
2019-03-18T17:04:38.246Z,6.19
2019-03-18T17:07:13.429Z,6.21
2019-03-18T17:09:48.481Z,6.30
2019-03-18T17:12:23.530Z,6.54
2019-03-18T17:14:58.457Z,6.52
2019-03-18T17:17:33.548Z,6.47
2019-03-18T17:20:10.226Z,6.37
2019-03-18T17:22:49.394Z,6.37
2019-03-18T17:25:22.044Z,6.33
2019-03-18T17:27:57.037Z,6.28
2019-03-18T17:30:31.951Z,6.36
2019-03-18T17:33:08.158Z,6.18
2019-03-18T17:35:43.178Z,6.08
2019-03-18T17:38:18.454Z,6.01
2019-03-18T17:40:53.347Z,5.96
2019-03-18T17:43:28.319Z,5.89
2019-03-18T17:46:03.293Z,5.88
2019-03-18T17:48:38.212Z,5.89
2019-03-18T17:51:13.109Z,5.90
2019-03-18T17:53:49.220Z,5.81
2019-03-18T17:56:30.160Z,5.81
2019-03-18T17:59:00.782Z,5.69
2019-03-18T18:01:35.669Z,5.70
2019-03-18T18:04:11.260Z,5.73
2019-03-18T18:06:46.137Z,5.79
2019-03-18T18:09:23.024Z,5.68
2019-03-18T18:11:59.291Z,5.74
2019-03-18T18:14:34.196Z,5.70
2019-03-18T18:17:09.658Z,5.73
2019-03-18T18:19:44.609Z,5.68
2019-03-18T18:22:19.464Z,5.61
2019-03-18T18:24:54.393Z,5.64
2019-03-18T18:27:29.164Z,5.71
2019-03-18T18:30:04.335Z,5.87
2019-03-18T18:32:39.295Z,5.86
2019-03-18T18:35:14.375Z,5.96
2019-03-18T18:37:49.340Z,5.77
2019-03-18T18:40:25.170Z,5.80
2019-03-18T18:43:00.044Z,5.77
2019-03-18T18:45:34.980Z,5.77
2019-03-18T18:48:09.847Z,5.76
2019-03-18T18:50:44.631Z,5.60
2019-03-18T18:53:26.410Z,5.63
2019-03-18T18:55:56.346Z,5.57
2019-03-18T18:58:31.308Z,5.51
2019-03-18T19:01:09.006Z,5.57
2019-03-18T19:03:43.965Z,5.42
2019-03-18T19:06:18.926Z,5.34
2019-03-18T19:08:53.882Z,5.44
2019-03-18T19:11:28.917Z,5.38
2019-03-18T19:14:04.593Z,5.41
2019-03-18T19:16:39.563Z,5.38
2019-03-18T19:19:14.436Z,5.40
2019-03-18T19:21:49.357Z,5.19
2019-03-18T19:24:24.325Z,5.04
2019-03-18T19:26:59.286Z,5.17
2019-03-18T19:29:34.186Z,5.11
2019-03-18T19:32:09.150Z,5.10
2019-03-18T19:34:44.209Z,5.02
2019-03-18T19:37:19.175Z,5.02
2019-03-18T19:39:56.524Z,5.00
2019-03-18T19:42:31.396Z,5.01
2019-03-18T19:45:07.533Z,5.00
2019-03-18T19:47:42.455Z,5.02
2019-03-18T19:50:18.768Z,4.95
2019-03-18T19:52:53.672Z,4.97
2019-03-18T19:55:28.637Z,4.93
2019-03-18T19:58:03.530Z,5.05
2019-03-18T20:00:38.438Z,4.97
2019-03-18T20:03:13.384Z,5.06
2019-03-18T20:05:49.158Z,5.12
2019-03-18T20:08:24.048Z,4.95
2019-03-18T20:10:58.843Z,4.88
2019-03-18T20:13:33.986Z,4.79
2019-03-18T20:16:08.996Z,4.80
2019-03-18T20:18:43.978Z,4.75
2019-03-18T20:21:18.955Z,4.72
2019-03-18T20:24:00.834Z,4.74
2019-03-18T20:26:30.560Z,4.79
2019-03-18T20:29:06.697Z,4.82
2019-03-18T20:31:41.896Z,4.75
2019-03-18T20:34:16.770Z,4.70
2019-03-18T20:36:52.096Z,4.68
2019-03-18T20:39:28.177Z,4.67
2019-03-18T20:42:03.170Z,4.69
2019-03-18T20:44:38.080Z,4.68
2019-03-18T20:47:14.864Z,4.71
2019-03-18T20:49:49.896Z,4.70
2019-03-18T20:52:24.896Z,4.63
2019-03-18T20:54:59.820Z,4.82
2019-03-18T20:57:34.814Z,4.77
2019-03-18T21:00:11.177Z,4.63
2019-03-18T21:02:46.368Z,4.60
2019-03-18T21:05:21.276Z,4.45
2019-03-18T21:07:56.354Z,4.54
2019-03-18T21:10:31.234Z,4.37
2019-03-18T21:13:06.244Z,4.42
2019-03-18T21:15:41.142Z,4.38
2019-03-18T21:18:16.128Z,4.29
2019-03-18T21:20:52.350Z,4.14
2019-03-18T21:23:27.288Z,4.11
2019-03-18T21:26:02.312Z,4.05
2019-03-18T21:28:41.524Z,4.14
2019-03-18T21:31:14.453Z,4.17
2019-03-18T21:33:49.356Z,4.27
2019-03-18T21:36:37.169Z,4.15
2019-03-18T21:39:01.934Z,4.09
2019-03-18T21:41:37.906Z,4.14
2019-03-18T21:44:12.780Z,4.24
2019-03-18T21:46:47.815Z,4.17
2019-03-18T21:49:22.688Z,4.12
2019-03-18T21:51:57.608Z,4.03
2019-03-18T21:54:34.283Z,4.05
2019-03-18T21:57:10.127Z,4.02
2019-03-18T21:59:48.037Z,4.00
2019-03-18T22:02:25.161Z,3.96
2019-03-18T22:05:00.051Z,3.94
2019-03-18T22:07:34.959Z,4.03
2019-03-18T22:10:11.664Z,4.03
2019-03-18T22:12:49.345Z,4.04
2019-03-18T22:15:24.227Z,4.20
2019-03-18T22:17:59.134Z,4.15
2019-03-18T22:20:34.006Z,3.99
2019-03-18T22:23:08.877Z,3.98
2019-03-18T22:25:43.758Z,3.95
2019-03-18T22:28:18.699Z,3.95
2019-03-18T22:30:53.588Z,3.88
2019-03-18T22:33:28.506Z,3.97
2019-03-18T22:36:03.370Z,3.88
2019-03-18T22:38:38.310Z,3.98
2019-03-18T22:41:13.252Z,3.91
2019-03-18T22:43:48.153Z,3.87
2019-03-18T22:46:23.312Z,3.87
2019-03-18T22:48:58.274Z,3.99
2019-03-18T22:51:33.243Z,3.82
2019-03-18T22:54:08.472Z,3.72
2019-03-18T22:56:43.596Z,3.78
2019-03-18T22:59:20.497Z,3.70
2019-03-18T23:01:55.285Z,3.62
2019-03-18T23:04:30.399Z,3.70
2019-03-18T23:07:05.183Z,3.65
2019-03-18T23:09:40.066Z,3.65
2019-03-18T23:12:14.859Z,3.75
2019-03-18T23:14:49.771Z,3.64
2019-03-18T23:17:24.587Z,3.64
2019-03-18T23:19:59.533Z,3.51
2019-03-18T23:22:34.518Z,3.50
2019-03-18T23:25:09.487Z,3.46
2019-03-18T23:27:44.517Z,3.61
2019-03-18T23:30:19.386Z,3.56
2019-03-18T23:32:54.335Z,3.50
2019-03-18T23:35:30.223Z,3.52
2019-03-18T23:38:07.610Z,3.42
2019-03-18T23:40:44.889Z,3.50
2019-03-18T23:43:20.468Z,3.47
2019-03-18T23:45:55.377Z,3.41
2019-03-18T23:48:31.162Z,3.41
2019-03-18T23:51:06.981Z,3.43
2019-03-18T23:53:41.943Z,3.48
2019-03-18T23:56:16.865Z,3.45
2019-03-18T23:58:51.766Z,3.37
